| time (UTC) | temp C | wind direction | speed KPH | gust KPH | rain 1hr cm | rain 24hr cm | rain mn cm | humidity % | barometer mb |
| 20260504034555 | 11 | 178 | 6.4 | 14.5 | 0.00 | 0.18 | 0.18 | 75 | 1006.8 |
| 20260504033043 | 12 | 205 | 4.8 | 9.7 | 0.00 | 0.18 | 0.18 | 72 | 1006.9 |
| 20260504031543 | 12 | 186 | 8.0 | 12.9 | 0.00 | 0.18 | 0.18 | 73 | 1006.9 |
| 20260504030047 | 12 | 189 | 8.0 | 14.5 | 0.00 | 0.18 | 0.18 | 72 | 1007.1 |
| 20260504024551 | 13 | 192 | 9.7 | 11.3 | 0.00 | 0.18 | 0.18 | 70 | 1007.1 |
| 20260504023043 | 13 | 192 | 9.7 | 16.1 | 0.00 | 0.18 | 0.18 | 69 | 1007.0 |
| 20260504021541 | 13 | 198 | 9.7 | 16.1 | 0.00 | 0.18 | 0.18 | 68 | 1006.9 |
| 20260504020041 | 14 | 198 | 11.3 | 16.1 | 0.00 | 0.18 | 0.18 | 67 | 1006.8 |
| 20260504014553 | 14 | 200 | 12.9 | 19.3 | 0.00 | 0.18 | 0.18 | 66 | 1006.7 |
| 20260504013102 | 14 | 192 | 12.9 | 17.7 | 0.00 | 0.18 | 0.18 | 66 | 1006.6 |
| 20260504011543 | 15 | 219 | 11.3 | 16.1 | 0.00 | 0.18 | 0.18 | 64 | 1006.5 |
| 20260504010043 | 16 | 204 | 12.9 | 22.5 | 0.00 | 0.18 | 0.18 | 62 | 1006.5 |
| 20260504004538 | 17 | 207 | 12.9 | 25.7 | 0.00 | 0.18 | 0.18 | 59 | 1006.4 |
| 20260504003037 | 17 | 210 | 16.1 | 25.7 | 0.00 | 0.18 | 0.18 | 57 | 1006.4 |
| 20260504001543 | 18 | 203 | 16.1 | 29.0 | 0.00 | 0.18 | 0.18 | 56 | 1006.6 |
| 20260504000043 | 18 | 202 | 19.3 | 30.6 | 0.00 | 0.18 | 0.18 | 54 | 1006.5 |
| 20260503234538 | 19 | 211 | 19.3 | 37.0 | 0.00 | 0.18 | 0.18 | 55 | 1006.6 |
| 20260503233039 | 20 | 238 | 22.5 | 33.8 | 0.00 | 0.18 | 0.18 | 52 | 1006.6 |
| 20260503231537 | 20 | 205 | 25.7 | 40.2 | 0.00 | 0.18 | 0.18 | 53 | 1006.6 |
| 20260503230045 | 20 | 211 | 25.7 | 38.6 | 0.00 | 0.18 | 0.18 | 53 | 1006.7 |
| 20260503224543 | 20 | 217 | 29.0 | 40.2 | 0.00 | 0.18 | 0.18 | 51 | 1006.8 |
| 20260503223039 | 20 | 244 | 27.4 | 43.5 | 0.00 | 0.18 | 0.18 | 51 | 1006.7 |
| 20260503221537 | 18 | 194 | 27.4 | 41.8 | 0.00 | 0.18 | 0.18 | 53 | 1006.9 |
| 20260503220047 | 20 | 206 | 24.1 | 38.6 | 0.00 | 0.18 | 0.18 | 50 | 1007.1 |
| 20260503214542 | 18 | 213 | 22.5 | 30.6 | 0.00 | 0.18 | 0.18 | 56 | 1007.1 |
| 20260503213044 | 18 | 181 | 22.5 | 37.0 | 0.00 | 0.18 | 0.18 | 53 | 1007.2 |
| 20260503211544 | 18 | 215 | 25.7 | 37.0 | 0.00 | 0.18 | 0.18 | 51 | 1007.4 |
| 20260503210044 | 18 | 179 | 17.7 | 40.2 | 0.00 | 0.18 | 0.18 | 53 | 1008.0 |
| 20260503204553 | 18 | 200 | 27.4 | 41.8 | 0.00 | 0.18 | 0.18 | 52 | 1008.4 |
| 20260503203049 | 17 | 223 | 29.0 | 49.9 | 0.00 | 0.18 | 0.18 | 51 | 1008.8 |
| 20260503201546 | 17 | 191 | 35.4 | 49.9 | 0.00 | 0.18 | 0.18 | 50 | 1009.0 |
| 20260503200037 | 17 | 194 | 25.7 | 49.9 | 0.00 | 0.18 | 0.18 | 52 | 1009.2 |
| 20260503194546 | 19 | 205 | 37.0 | 64.4 | 0.00 | 0.18 | 0.18 | 48 | 1009.6 |
| 20260503193048 | 18 | 189 | 33.8 | 53.1 | 0.00 | 0.18 | 0.18 | 55 | 1009.6 |
| 20260503191603 | 18 | 183 | 25.7 | 51.5 | 0.00 | 0.18 | 0.18 | 55 | 1009.7 |
| 20260503190037 | 17 | 184 | 25.7 | 49.9 | 0.00 | 0.18 | 0.18 | 63 | 1009.8 |
| 20260503184538 | 16 | 184 | 24.1 | 43.5 | 0.00 | 0.18 | 0.18 | 63 | 1010.1 |
| 20260503183042 | 15 | 149 | 14.5 | 40.2 | 0.00 | 0.18 | 0.18 | 67 | 1010.4 |
| 20260503181547 | 13 | 194 | 9.7 | 27.4 | 0.00 | 0.18 | 0.18 | 72 | 1010.9 |
| 20260503180040 | 12 | 153 | 4.8 | 17.7 | 0.00 | 0.18 | 0.18 | 78 | 1011.3 |
| 20260503174545 | 10 | 80 | 1.6 | 12.9 | 0.00 | 0.18 | 0.18 | 83 | 1011.8 |
| 20260503173042 | 9 | 95 | 1.6 | 12.9 | 0.03 | 0.18 | 0.18 | 82 | 1012.3 |
| 20260503171539 | 8 | 183 | 1.6 | 12.9 | 0.05 | 0.18 | 0.18 | 84 | 1013.3 |
| 20260503081540 | 2 | 211 | 6.4 | 9.7 | 0.00 | 0.00 | 0.00 | 78 | 1015.6 |
| 20260503071536 | 3 | 201 | 4.8 | 9.7 | 0.00 | 0.00 | 0.00 | 77 | 1015.7 |
| 20260503054558 | 3 | 202 | 6.4 | 11.3 | 0.00 | 0.00 | 0.00 | 75 | 1016.4 |
| 20260503053036 | 3 | 198 | 6.4 | 12.9 | 0.00 | 0.00 | 0.00 | 77 | 1016.5 |
| 20260503051538 | 2 | 207 | 8.0 | 11.3 | 0.00 | 0.00 | 0.00 | 77 | 1016.7 |
| 20260503050037 | 2 | 209 | 6.4 | 11.3 | 0.00 | 0.00 | 0.00 | 75 | 1016.7 |
| 20260503044541 | 3 | 209 | 1.6 | 8.0 | 0.00 | 0.00 | 0.00 | 75 | 1016.8 |
| 20260503043051 | 3 | 0 | 0.0 | 6.4 | 0.00 | 0.00 | 0.00 | 75 | 1016.7 |
| 20260503041542 | 3 | 225 | 1.6 | 3.2 | 0.00 | 0.00 | 0.00 | 75 | 1016.9 |
| 20260503040038 | 3 | 238 | 1.6 | 4.8 | 0.00 | 0.00 | 0.00 | 75 | 1017.0 |